Time;durP1;ratioP1;P1;durP2;ratioP2;P2;SDS_P1;SDS_P2;PMS_P1;PMS_P2;Temp;Humidity;BMP_temperature;BMP_pressure;BME280_temperature;BME280_humidity;BME280_pressure;Samples;Min_cycle;Max_cycle;Signal;HPM_P1;HPM_P2
2023/07/27 00:01:21;;;;;;;35.90;13.18;;;10.80;99.90;;;;;;5015837;28;20508;-58
2023/07/27 00:03:47;;;;;;;21.88;12.65;;;10.80;99.90;;;;;;5014701;28;20097;-60
2023/07/27 00:06:13;;;;;;;20.73;13.10;;;10.80;99.90;;;;;;5018507;28;20025;-59
2023/07/27 00:08:38;;;;;;;20.60;13.38;;;10.80;99.90;;;;;;5014436;28;20512;-57
2023/07/27 00:11:04;;;;;;;18.17;13.00;;;10.80;99.90;;;;;;5016462;28;20394;-58
2023/07/27 00:13:29;;;;;;;31.45;13.85;;;10.80;99.90;;;;;;5016990;28;20029;-60
2023/07/27 00:15:55;;;;;;;25.13;13.82;;;10.80;99.90;;;;;;5017200;28;20076;-59
2023/07/27 00:18:21;;;;;;;22.45;13.90;;;10.90;99.90;;;;;;5016578;28;20037;-58
2023/07/27 00:20:46;;;;;;;18.85;12.50;;;10.90;99.90;;;;;;5020415;28;20448;-57
2023/07/27 00:23:12;;;;;;;29.83;13.07;;;10.80;99.90;;;;;;5020175;28;20049;-59
2023/07/27 00:25:38;;;;;;;26.75;12.23;;;10.80;99.90;;;;;;5017892;28;20040;-59
2023/07/27 00:28:04;;;;;;;15.50;11.65;;;10.70;99.90;;;;;;5017624;28;20026;-59
2023/07/27 00:30:29;;;;;;;24.15;10.95;;;10.70;99.90;;;;;;5015494;28;20029;-58
2023/07/27 00:32:55;;;;;;;37.97;12.45;;;10.60;99.90;;;;;;5017892;28;20026;-59
2023/07/27 00:35:21;;;;;;;46.40;12.20;;;10.60;99.90;;;;;;5016480;28;20494;-59
2023/07/27 00:37:46;;;;;;;21.83;11.90;;;10.60;99.90;;;;;;5017346;28;20498;-59
2023/07/27 00:40:12;;;;;;;24.55;12.77;;;10.60;99.90;;;;;;5018855;28;20106;-60
2023/07/27 00:42:37;;;;;;;29.38;11.82;;;10.60;99.90;;;;;;5017475;28;20517;-57
2023/07/27 00:45:03;;;;;;;19.10;11.10;;;10.60;99.90;;;;;;5016473;28;20072;-58
2023/07/27 00:47:29;;;;;;;21.00;12.15;;;10.60;99.90;;;;;;5018141;28;20025;-60
2023/07/27 00:49:55;;;;;;;15.85;10.90;;;10.60;99.90;;;;;;5017867;28;20029;-58
2023/07/27 00:52:21;;;;;;;20.35;10.63;;;10.50;99.90;;;;;;5019680;28;20428;-59
2023/07/27 00:54:46;;;;;;;15.65;10.23;;;10.50;99.90;;;;;;5020810;28;20423;-60
2023/07/27 00:57:12;;;;;;;19.90;11.50;;;10.50;99.90;;;;;;5017594;28;20104;-61
2023/07/27 00:59:39;;;;;;;18.77;11.85;;;10.50;99.90;;;;;;5017104;28;20032;-60
2023/07/27 01:02:05;;;;;;;35.15;11.95;;;10.50;99.90;;;;;;5015321;28;20495;-61
2023/07/27 01:04:31;;;;;;;30.92;12.88;;;10.50;99.90;;;;;;5017373;28;20155;-58
2023/07/27 01:06:56;;;;;;;21.70;11.85;;;10.50;99.90;;;;;;5016123;28;20505;-58
2023/07/27 01:09:22;;;;;;;18.42;9.82;;;10.50;99.90;;;;;;5017107;28;20068;-57
2023/07/27 01:12:00;;;;;;;19.25;10.77;;;10.40;99.90;;;;;;5017108;28;20025;-58
2023/07/27 01:14:51;;;;;;;18.17;12.88;;;10.40;99.90;;;;;;5021585;28;20030;-57
2023/07/27 01:17:19;;;;;;;24.63;12.45;;;10.40;99.90;;;;;;5013674;28;20041;-58
2023/07/27 01:20:02;;;;;;;29.63;12.85;;;10.40;99.90;;;;;;5017882;28;20576;-57
2023/07/27 01:22:31;;;;;;;21.55;12.82;;;10.50;99.90;;;;;;5013098;28;20512;-58
2023/07/27 01:25:13;;;;;;;22.33;13.25;;;10.50;99.90;;;;;;5015437;28;20088;-56
2023/07/27 01:27:52;;;;;;;59.10;12.00;;;10.60;99.90;;;;;;5013884;28;20037;-58
2023/07/27 01:31:02;;;;;;;76.22;8.90;;;10.60;99.90;;;;;;5017703;28;20113;-59
2023/07/27 01:33:34;;;;;;;80.55;8.68;;;10.50;99.90;;;;;;5014734;28;20041;-58
2023/07/27 01:36:05;;;;;;;16.60;5.90;;;10.40;99.90;;;;;;5017247;28;20022;-57
2023/07/27 01:38:33;;;;;;;16.42;6.97;;;10.30;99.90;;;;;;5018629;28;20113;-57
2023/07/27 01:41:00;;;;;;;9.85;7.97;;;10.30;99.90;;;;;;5018019;28;20049;-56
2023/07/27 01:43:28;;;;;;;15.88;10.10;;;10.40;99.90;;;;;;5018900;28;20113;-58
2023/07/27 01:45:55;;;;;;;17.50;10.98;;;10.40;99.90;;;;;;5019946;28;20054;-60
2023/07/27 01:48:23;;;;;;;30.30;12.43;;;10.40;99.90;;;;;;5018833;28;20033;-57
2023/07/27 01:50:50;;;;;;;26.50;13.00;;;10.50;99.90;;;;;;5016959;28;20057;-59
2023/07/27 01:53:17;;;;;;;16.20;11.55;;;10.50;99.90;;;;;;5017043;28;20032;-58
2023/07/27 01:55:44;;;;;;;28.48;12.25;;;10.60;99.90;;;;;;5020441;28;20038;-58
2023/07/27 01:58:10;;;;;;;53.05;14.60;;;10.60;99.90;;;;;;5012440;28;20057;-56
2023/07/27 02:00:36;;;;;;;32.25;13.57;;;10.60;99.90;;;;;;5012199;28;20046;-54
2023/07/27 02:03:02;;;;;;;47.35;15.48;;;10.70;99.90;;;;;;5016000;28;20033;-58
2023/07/27 02:05:27;;;;;;;34.60;14.90;;;10.70;99.90;;;;;;5020683;28;20030;-57
2023/07/27 02:07:53;;;;;;;42.63;14.52;;;10.70;99.90;;;;;;5015391;28;20049;-58
2023/07/27 02:10:20;;;;;;;21.02;13.55;;;10.90;99.90;;;;;;5023908;28;20036;-58
2023/07/27 02:12:57;;;;;;;27.60;12.02;;;10.90;99.90;;;;;;5016129;28;20049;-56
2023/07/27 02:15:27;;;;;;;24.58;12.10;;;10.90;99.90;;;;;;5016254;28;20064;-59
2023/07/27 02:18:00;;;;;;;23.70;12.20;;;10.90;99.90;;;;;;5017178;28;20068;-59
2023/07/27 02:20:47;;;;;;;23.30;11.75;;;10.90;99.90;;;;;;5016246;28;20031;-58
2023/07/27 02:23:14;;;;;;;23.23;11.32;;;10.80;99.90;;;;;;5017322;28;20080;-57
2023/07/27 02:25:40;;;;;;;20.23;11.35;;;10.70;99.90;;;;;;5016112;28;20030;-57
2023/07/27 02:28:09;;;;;;;25.23;12.27;;;10.60;99.90;;;;;;5016487;28;20449;-58
2023/07/27 02:30:35;;;;;;;16.75;11.18;;;10.60;99.90;;;;;;5015917;28;20116;-60
2023/07/27 02:33:00;;;;;;;24.83;12.75;;;10.70;99.90;;;;;;5015975;28;20124;-57
2023/07/27 02:35:26;;;;;;;32.60;12.38;;;10.70;99.90;;;;;;5013567;28;20025;-59
2023/07/27 02:37:51;;;;;;;22.65;12.25;;;10.70;99.90;;;;;;5014900;28;20022;-58
2023/07/27 02:40:17;;;;;;;27.55;12.82;;;10.70;99.90;;;;;;5017664;28;20519;-58
2023/07/27 02:42:42;;;;;;;19.50;11.55;;;10.70;99.90;;;;;;5014033;28;20030;-58
2023/07/27 02:45:08;;;;;;;22.75;12.65;;;10.70;99.90;;;;;;5016780;28;20032;-57
2023/07/27 02:47:34;;;;;;;17.85;10.75;;;10.70;99.90;;;;;;5016190;28;20025;-57
2023/07/27 02:50:00;;;;;;;17.63;11.32;;;10.70;99.90;;;;;;5020216;28;20018;-59
2023/07/27 02:52:25;;;;;;;22.77;11.90;;;10.70;99.90;;;;;;5017803;28;20057;-59
2023/07/27 02:54:51;;;;;;;21.05;12.15;;;10.70;99.90;;;;;;5016215;28;20141;-57
2023/07/27 02:57:16;;;;;;;21.17;11.23;;;10.70;99.90;;;;;;5015490;28;20037;-57
2023/07/27 02:59:42;;;;;;;25.15;11.40;;;10.60;99.90;;;;;;5018143;28;20029;-58
2023/07/27 03:02:08;;;;;;;28.38;11.95;;;10.60;99.90;;;;;;5015815;28;20113;-56
2023/07/27 03:04:34;;;;;;;17.45;10.88;;;10.50;99.90;;;;;;5017052;28;20560;-58
2023/07/27 03:07:00;;;;;;;18.55;11.55;;;10.50;99.90;;;;;;5015619;28;20026;-58
2023/07/27 03:09:25;;;;;;;28.60;10.75;;;10.40;99.90;;;;;;5016472;28;20084;-56
2023/07/27 03:11:51;;;;;;;16.98;8.52;;;10.40;99.90;;;;;;5018483;28;20030;-57
2023/07/27 03:14:17;;;;;;;15.73;9.20;;;10.30;99.90;;;;;;5015641;28;20029;-57
2023/07/27 03:16:42;;;;;;;15.50;10.57;;;10.20;99.90;;;;;;5017458;28;20026;-58
2023/07/27 03:19:08;;;;;;;15.32;10.05;;;10.20;99.90;;;;;;5015903;28;20079;-58
2023/07/27 03:21:33;;;;;;;17.70;10.98;;;10.20;99.90;;;;;;5013626;28;20034;-59
2023/07/27 03:23:59;;;;;;;14.43;11.13;;;10.30;99.90;;;;;;5014013;28;20032;-55
2023/07/27 03:26:25;;;;;;;22.13;11.55;;;10.30;99.90;;;;;;5014596;28;20059;-57
2023/07/27 03:28:50;;;;;;;21.75;11.80;;;10.30;99.90;;;;;;5013495;28;20044;-57
2023/07/27 03:31:22;;;;;;;24.88;12.57;;;10.40;99.90;;;;;;5015877;28;20259;-57
2023/07/27 03:33:48;;;;;;;18.33;11.82;;;10.40;99.90;;;;;;5014388;28;20040;-58
2023/07/27 03:36:15;;;;;;;19.25;12.27;;;10.40;99.90;;;;;;5018492;28;20084;-58
2023/07/27 03:38:40;;;;;;;20.50;13.02;;;10.40;99.90;;;;;;5017249;28;20038;-58
2023/07/27 03:41:06;;;;;;;19.17;12.50;;;10.40;99.90;;;;;;5014509;28;20025;-58
2023/07/27 03:43:32;;;;;;;27.98;12.43;;;10.40;99.90;;;;;;5017783;28;20034;-56
2023/07/27 03:45:57;;;;;;;27.15;12.10;;;10.40;99.90;;;;;;5015478;28;20032;-58
2023/07/27 03:48:23;;;;;;;21.40;12.82;;;10.40;99.90;;;;;;5021314;28;20041;-58
2023/07/27 03:50:49;;;;;;;17.08;12.23;;;10.40;99.90;;;;;;5020321;28;20034;-60
2023/07/27 03:53:14;;;;;;;20.05;12.52;;;10.40;99.90;;;;;;5020605;28;20738;-58
2023/07/27 03:55:40;;;;;;;19.60;14.00;;;10.30;99.90;;;;;;5018823;28;20080;-59
2023/07/27 03:58:06;;;;;;;19.73;13.35;;;10.30;99.90;;;;;;5017929;28;20048;-56
2023/07/27 04:00:31;;;;;;;18.90;13.30;;;10.30;99.90;;;;;;5019261;28;20766;-56
2023/07/27 04:02:57;;;;;;;15.80;12.43;;;10.30;99.90;;;;;;5015295;28;20508;-59
2023/07/27 04:05:23;;;;;;;22.83;13.68;;;10.30;99.90;;;;;;5021252;28;20033;-58
2023/07/27 04:07:51;;;;;;;17.00;14.20;;;10.30;99.90;;;;;;5019219;28;20040;-58
2023/07/27 04:10:17;;;;;;;18.48;13.23;;;10.30;99.90;;;;;;5019704;28;21275;-57
2023/07/27 04:12:43;;;;;;;20.92;14.55;;;10.30;99.90;;;;;;5018802;28;20069;-58
2023/07/27 04:15:09;;;;;;;29.98;17.20;;;10.30;99.90;;;;;;5019771;28;20053;-59
2023/07/27 04:17:35;;;;;;;31.30;17.20;;;10.30;99.90;;;;;;5019564;28;20521;-59
2023/07/27 04:20:01;;;;;;;28.60;17.25;;;10.40;99.90;;;;;;5017750;28;20099;-56
2023/07/27 04:22:26;;;;;;;26.58;15.32;;;10.40;99.90;;;;;;5017505;28;20060;-57
2023/07/27 04:24:52;;;;;;;26.75;16.95;;;10.40;99.90;;;;;;5015458;28;20053;-59
2023/07/27 04:27:18;;;;;;;20.80;15.23;;;10.40;99.90;;;;;;5017135;28;20444;-59
2023/07/27 04:29:43;;;;;;;22.05;15.60;;;10.40;99.90;;;;;;5018118;28;20036;-56
2023/07/27 04:32:09;;;;;;;35.47;18.42;;;10.40;99.90;;;;;;5021808;28;20048;-57
2023/07/27 04:34:35;;;;;;;26.92;17.17;;;10.50;99.90;;;;;;5019324;28;20025;-59
2023/07/27 04:37:00;;;;;;;38.05;19.52;;;10.50;99.90;;;;;;5021400;28;20069;-57
2023/07/27 04:39:26;;;;;;;37.15;19.02;;;10.50;99.90;;;;;;5022138;28;20079;-58
2023/07/27 04:41:52;;;;;;;45.33;19.48;;;10.50;99.90;;;;;;5019425;28;20034;-58
2023/07/27 04:44:17;;;;;;;28.55;19.40;;;10.50;99.90;;;;;;5020746;28;20021;-59
2023/07/27 04:46:43;;;;;;;33.78;20.02;;;10.50;99.90;;;;;;5021543;28;20528;-61
2023/07/27 04:49:09;;;;;;;28.00;18.70;;;10.50;99.90;;;;;;5021850;28;20068;-61
2023/07/27 04:51:35;;;;;;;25.10;17.95;;;10.60;99.90;;;;;;5019173;28;20133;-60
2023/07/27 04:54:01;;;;;;;36.92;19.52;;;10.60;99.90;;;;;;5018729;28;20569;-61
2023/07/27 04:56:27;;;;;;;42.78;21.30;;;10.70;99.90;;;;;;5021726;28;20048;-60
2023/07/27 04:58:53;;;;;;;38.10;21.60;;;10.70;99.90;;;;;;5019104;28;20030;-60
2023/07/27 05:01:18;;;;;;;28.05;17.85;;;10.90;99.90;;;;;;5022832;28;20036;-60
2023/07/27 05:03:44;;;;;;;26.52;18.30;;;11.00;99.90;;;;;;5022406;28;20022;-59
2023/07/27 05:06:10;;;;;;;27.92;17.83;;;11.20;99.90;;;;;;5019763;28;20034;-60
2023/07/27 05:08:35;;;;;;;25.83;18.05;;;11.30;99.90;;;;;;5022391;28;20025;-59
2023/07/27 05:11:06;;;;;;;22.95;15.43;;;11.40;99.90;;;;;;5022663;28;20448;-60
2023/07/27 05:13:32;;;;;;;17.65;15.15;;;11.60;99.90;;;;;;5020065;28;20036;-58
2023/07/27 05:15:58;;;;;;;23.42;14.18;;;11.60;99.90;;;;;;5018839;28;20494;-61
2023/07/27 05:18:24;;;;;;;15.95;14.32;;;11.70;99.90;;;;;;5018514;28;20034;-59
2023/07/27 05:20:50;;;;;;;18.73;14.45;;;11.70;99.90;;;;;;5021317;28;20456;-59
2023/07/27 05:23:15;;;;;;;19.70;13.93;;;11.70;99.90;;;;;;5020025;28;20052;-61
2023/07/27 05:25:41;;;;;;;14.63;13.15;;;11.80;99.90;;;;;;5018773;28;20026;-60
2023/07/27 05:28:07;;;;;;;14.93;13.35;;;11.80;99.90;;;;;;5019819;28;20124;-61
2023/07/27 05:30:33;;;;;;;20.13;14.73;;;11.80;99.90;;;;;;5018981;28;20057;-61
2023/07/27 05:32:58;;;;;;;16.45;13.07;;;11.80;99.90;;;;;;5016573;28;20025;-61
2023/07/27 05:35:24;;;;;;;19.80;12.48;;;11.80;99.90;;;;;;5017081;28;20033;-60
2023/07/27 05:37:50;;;;;;;15.48;13.00;;;11.80;99.90;;;;;;5017392;28;20465;-60
2023/07/27 05:40:16;;;;;;;12.88;11.40;;;11.80;99.90;;;;;;5017037;28;20026;-61
2023/07/27 05:42:42;;;;;;;11.57;10.25;;;11.80;99.90;;;;;;5015359;28;20370;-61
2023/07/27 05:45:08;;;;;;;12.07;11.02;;;11.80;99.90;;;;;;5016665;28;20030;-61
2023/07/27 05:47:34;;;;;;;11.88;10.73;;;11.80;99.90;;;;;;5017486;28;20042;-60
2023/07/27 05:50:00;;;;;;;13.80;12.43;;;11.80;99.90;;;;;;5017459;28;20029;-59
2023/07/27 05:52:26;;;;;;;16.35;11.02;;;11.80;99.90;;;;;;5016497;28;20037;-58
2023/07/27 05:54:51;;;;;;;13.13;11.70;;;11.90;99.90;;;;;;5014779;28;20037;-61
2023/07/27 05:57:17;;;;;;;14.15;10.38;;;11.90;99.90;;;;;;5015545;28;20048;-59
2023/07/27 05:59:42;;;;;;;16.80;12.02;;;12.10;99.90;;;;;;5018445;28;20036;-61
2023/07/27 06:02:08;;;;;;;14.60;12.18;;;12.10;99.90;;;;;;5017748;28;20030;-59
2023/07/27 06:04:34;;;;;;;19.65;11.95;;;12.20;99.90;;;;;;5020471;28;20033;-61
2023/07/27 06:06:59;;;;;;;16.67;11.35;;;12.20;99.90;;;;;;5019153;28;20028;-61
2023/07/27 06:09:25;;;;;;;16.35;11.07;;;12.20;99.90;;;;;;5018264;28;20064;-62
2023/07/27 06:11:51;;;;;;;15.68;11.48;;;12.20;99.90;;;;;;5020814;28;20030;-59
2023/07/27 06:14:17;;;;;;;15.68;11.05;;;12.10;99.90;;;;;;5019937;28;20034;-59
2023/07/27 06:16:43;;;;;;;20.80;12.43;;;12.10;99.90;;;;;;5016571;28;20029;-60
2023/07/27 06:19:09;;;;;;;14.95;10.77;;;12.10;99.90;;;;;;5016692;28;20029;-60
2023/07/27 06:21:34;;;;;;;12.13;10.02;;;12.20;99.90;;;;;;5018003;28;20043;-61
2023/07/27 06:24:00;;;;;;;14.55;11.35;;;12.20;99.90;;;;;;5017465;28;20115;-60
2023/07/27 06:26:26;;;;;;;15.07;11.23;;;12.20;99.90;;;;;;5019167;28;20044;-62
2023/07/27 06:28:51;;;;;;;11.75;10.57;;;12.30;99.90;;;;;;5018223;28;20149;-61
2023/07/27 06:31:17;;;;;;;12.57;9.77;;;12.30;99.90;;;;;;5018328;28;20141;-59
2023/07/27 06:33:43;;;;;;;10.63;9.50;;;12.30;99.90;;;;;;5017663;28;20083;-61
2023/07/27 06:36:11;;;;;;;15.43;11.10;;;12.20;99.90;;;;;;5018751;28;20048;-60
2023/07/27 06:38:40;;;;;;;12.85;10.27;;;12.20;99.90;;;;;;5015934;28;20756;-61
2023/07/27 06:41:06;;;;;;;11.60;10.55;;;12.10;99.90;;;;;;5017757;28;20048;-60
2023/07/27 06:43:32;;;;;;;11.68;10.57;;;12.10;99.90;;;;;;5019694;28;20411;-58
2023/07/27 06:45:58;;;;;;;12.63;9.57;;;12.20;99.90;;;;;;5019448;28;20037;-59
2023/07/27 06:48:23;;;;;;;12.38;10.82;;;12.20;99.90;;;;;;5016060;28;20029;-60
2023/07/27 06:50:49;;;;;;;10.70;9.70;;;12.20;99.90;;;;;;5018248;28;20037;-62
2023/07/27 06:53:15;;;;;;;10.90;9.90;;;12.30;99.90;;;;;;5018738;28;20037;-60
2023/07/27 06:55:41;;;;;;;10.68;9.77;;;12.40;99.90;;;;;;5014826;28;20049;-60
2023/07/27 06:58:07;;;;;;;10.52;9.55;;;12.40;99.90;;;;;;5015298;28;20969;-58
2023/07/27 07:00:32;;;;;;;10.88;9.70;;;12.50;99.90;;;;;;5015259;28;20026;-60
2023/07/27 07:02:58;;;;;;;11.63;8.32;;;12.60;99.90;;;;;;5016564;28;20394;-62
2023/07/27 07:05:24;;;;;;;10.40;9.52;;;12.70;99.90;;;;;;5015435;28;20127;-61
2023/07/27 07:07:51;;;;;;;8.82;8.02;;;12.80;99.90;;;;;;5015401;28;20049;-61
2023/07/27 07:10:18;;;;;;;11.35;10.25;;;12.90;99.90;;;;;;5012774;28;20521;-61
2023/07/27 07:12:44;;;;;;;9.38;8.40;;;13.00;99.90;;;;;;5014946;28;21604;-61
2023/07/27 07:15:10;;;;;;;8.68;7.90;;;13.10;99.90;;;;;;5016050;28;20038;-61
2023/07/27 07:17:36;;;;;;;9.43;8.57;;;13.30;99.90;;;;;;5017412;28;20029;-61
2023/07/27 07:20:05;;;;;;;8.57;7.00;;;13.60;99.90;;;;;;5015261;28;20059;-61
2023/07/27 07:22:32;;;;;;;8.23;7.00;;;13.70;99.90;;;;;;5017781;28;20037;-59
2023/07/27 07:24:57;;;;;;;8.40;6.93;;;13.80;99.90;;;;;;5019555;28;20041;-61
2023/07/27 07:27:23;;;;;;;7.53;6.70;;;14.00;99.90;;;;;;5020642;28;20022;-59
2023/07/27 07:29:48;;;;;;;7.00;6.40;;;14.00;99.90;;;;;;5017394;28;20226;-57
2023/07/27 07:32:15;;;;;;;8.98;7.10;;;14.10;99.90;;;;;;5018747;28;20018;-58
2023/07/27 07:34:40;;;;;;;8.80;8.00;;;14.20;99.90;;;;;;5015367;28;20174;-62
2023/07/27 07:37:06;;;;;;;7.80;7.20;;;14.50;99.90;;;;;;5022491;28;21073;-59
2023/07/27 07:39:31;;;;;;;6.20;5.70;;;14.60;99.90;;;;;;5020196;28;20789;-58
2023/07/27 07:41:58;;;;;;;6.10;5.60;;;14.70;99.90;;;;;;5018041;28;20545;-59
2023/07/27 07:44:24;;;;;;;6.13;5.50;;;14.80;99.90;;;;;;5020245;28;20033;-59
2023/07/27 07:46:50;;;;;;;5.22;4.72;;;14.90;99.90;;;;;;5017969;28;20592;-59
2023/07/27 07:49:16;;;;;;;5.68;5.18;;;14.90;99.90;;;;;;5023023;28;20527;-58
2023/07/27 07:51:41;;;;;;;5.95;5.32;;;14.80;99.90;;;;;;5021280;28;20052;-58
2023/07/27 07:54:09;;;;;;;6.00;5.47;;;14.80;99.90;;;;;;5019978;28;20072;-60
2023/07/27 07:56:35;;;;;;;7.13;6.53;;;14.70;99.90;;;;;;5017457;28;20026;-60
2023/07/27 07:59:02;;;;;;;6.63;6.13;;;14.60;99.90;;;;;;5019056;28;20029;-59
2023/07/27 08:01:27;;;;;;;6.80;6.25;;;14.60;99.90;;;;;;5018462;28;20626;-59
2023/07/27 08:03:53;;;;;;;6.88;6.28;;;14.50;99.90;;;;;;5019808;28;20026;-59
2023/07/27 08:06:18;;;;;;;7.05;6.45;;;14.50;99.90;;;;;;5021275;28;20025;-59
2023/07/27 08:08:45;;;;;;;6.38;5.80;;;14.50;99.90;;;;;;5020263;28;20022;-59
2023/07/27 08:11:10;;;;;;;7.30;6.10;;;14.50;99.90;;;;;;5018207;28;20691;-58
2023/07/27 08:13:36;;;;;;;6.20;5.60;;;14.60;99.90;;;;;;5021017;28;20129;-59
2023/07/27 08:16:03;;;;;;;6.35;5.82;;;14.60;99.90;;;;;;5018240;28;20485;-58
2023/07/27 08:18:29;;;;;;;5.82;5.30;;;14.70;99.90;;;;;;5020182;28;20112;-57
2023/07/27 08:21:05;;;;;;;7.32;6.68;;;14.70;99.90;;;;;;5015871;28;20045;-59
2023/07/27 08:23:31;;;;;;;6.25;5.75;;;14.80;99.90;;;;;;5017632;28;20014;-58
2023/07/27 08:25:58;;;;;;;7.70;7.10;;;14.80;99.90;;;;;;5015559;28;20025;-58
2023/07/27 08:28:24;;;;;;;7.32;6.30;;;14.80;99.90;;;;;;5018195;28;20034;-58
2023/07/27 08:30:50;;;;;;;8.13;7.28;;;14.80;99.90;;;;;;5018302;28;20087;-60
2023/07/27 08:33:16;;;;;;;8.35;7.65;;;14.70;99.90;;;;;;5020115;28;20037;-57
2023/07/27 08:35:43;;;;;;;9.65;8.75;;;14.70;99.90;;;;;;5017324;28;20032;-58
2023/07/27 08:38:09;;;;;;;9.68;8.77;;;14.70;99.90;;;;;;5025099;28;20033;-60
2023/07/27 08:40:34;;;;;;;8.80;8.05;;;14.80;99.90;;;;;;5017943;28;20395;-59
2023/07/27 08:43:03;;;;;;;10.27;8.38;;;14.90;99.90;;;;;;5020360;28;20137;-59
2023/07/27 08:45:29;;;;;;;8.27;7.45;;;15.10;99.90;;;;;;5018472;28;20521;-58
2023/07/27 08:47:56;;;;;;;8.05;7.35;;;15.10;99.90;;;;;;5015636;28;20030;-58
2023/07/27 08:50:22;;;;;;;13.73;6.72;;;15.20;99.90;;;;;;5015718;28;20673;-56
2023/07/27 08:52:48;;;;;;;7.10;6.50;;;15.20;99.90;;;;;;5014647;28;20053;-57
2023/07/27 08:55:15;;;;;;;7.57;6.88;;;15.20;99.90;;;;;;5015967;28;20030;-59
2023/07/27 08:57:41;;;;;;;16.77;8.32;;;15.20;99.90;;;;;;5017914;28;20021;-59
2023/07/27 09:00:09;;;;;;;9.90;7.85;;;15.30;99.90;;;;;;5018226;28;20025;-58
2023/07/27 09:02:35;;;;;;;8.07;7.38;;;15.30;99.90;;;;;;5019402;28;20014;-58
2023/07/27 09:05:01;;;;;;;7.90;7.10;;;15.20;99.90;;;;;;5017200;28;20014;-60
2023/07/27 09:07:27;;;;;;;20.95;7.68;;;15.20;99.90;;;;;;5017753;28;20112;-58
2023/07/27 09:09:53;;;;;;;8.13;7.32;;;15.20;99.90;;;;;;5019029;28;20033;-59
2023/07/27 09:12:22;;;;;;;7.93;6.35;;;15.20;99.90;;;;;;5015130;28;20022;-58
2023/07/27 09:14:48;;;;;;;9.57;8.68;;;15.30;99.90;;;;;;5017621;28;20129;-59
2023/07/27 09:17:14;;;;;;;8.45;7.75;;;15.50;99.90;;;;;;5020997;28;20537;-59
2023/07/27 09:19:43;;;;;;;7.93;7.13;;;15.80;99.90;;;;;;5017313;28;20042;-58
2023/07/27 09:22:11;;;;;;;9.13;7.13;;;16.20;99.90;;;;;;5018560;28;20049;-60
2023/07/27 09:24:36;;;;;;;8.13;6.65;;;16.40;99.90;;;;;;5018177;28;20030;-58
2023/07/27 09:27:08;;;;;;;6.57;5.60;;;16.60;99.90;;;;;;5018031;28;20033;-58
2023/07/27 09:29:34;;;;;;;5.47;4.97;;;16.60;99.90;;;;;;5018462;28;20029;-59
2023/07/27 09:32:00;;;;;;;5.18;4.68;;;16.60;99.90;;;;;;5017716;28;20021;-59
2023/07/27 09:34:31;;;;;;;7.78;6.97;;;16.50;99.90;;;;;;5018766;28;20041;-58
2023/07/27 09:37:02;;;;;;;6.22;5.63;;;16.30;99.90;;;;;;5018998;28;20418;-57
2023/07/27 09:39:28;;;;;;;9.55;6.30;;;16.20;99.90;;;;;;5018089;28;20030;-58
2023/07/27 09:41:54;;;;;;;6.13;5.53;;;16.20;99.90;;;;;;5016602;28;20880;-60
2023/07/27 09:44:21;;;;;;;8.32;6.28;;;16.20;99.90;;;;;;5016492;28;20045;-59
2023/07/27 09:46:47;;;;;;;6.07;5.50;;;16.20;99.90;;;;;;5014625;28;20363;-57
2023/07/27 09:49:15;;;;;;;5.72;5.22;;;16.00;99.90;;;;;;5016936;28;20034;-58
2023/07/27 09:51:41;;;;;;;8.05;6.53;;;15.90;99.90;;;;;;5015505;28;20061;-59
2023/07/27 09:54:07;;;;;;;7.05;6.45;;;16.00;99.90;;;;;;5018288;28;20034;-60
2023/07/27 09:56:33;;;;;;;6.13;5.53;;;16.00;99.90;;;;;;5016078;28;20091;-57
2023/07/27 09:59:00;;;;;;;4.85;4.45;;;16.10;99.90;;;;;;5018722;28;20022;-58
2023/07/27 10:01:26;;;;;;;5.80;4.38;;;16.10;99.90;;;;;;5013360;28;20030;-60
2023/07/27 10:03:57;;;;;;;5.45;5.05;;;16.20;99.90;;;;;;5015633;28;20026;-59
2023/07/27 10:06:27;;;;;;;7.18;5.28;;;16.40;99.90;;;;;;5016973;28;20030;-59
2023/07/27 10:08:53;;;;;;;4.45;3.72;;;16.70;99.90;;;;;;5018207;28;20036;-59
2023/07/27 10:11:50;;;;;;;4.75;3.50;;;16.90;99.90;;;;;;5015051;28;20033;-60
2023/07/27 10:14:17;;;;;;;5.90;3.72;;;17.10;99.90;;;;;;5019293;28;20045;-58
2023/07/27 10:17:03;;;;;;;3.90;3.50;;;17.40;99.90;;;;;;5014835;28;20048;-58
2023/07/27 10:20:18;;;;;;;3.70;3.33;;;17.70;99.90;;;;;;5018452;28;20033;-57
2023/07/27 10:22:49;;;;;;;3.63;2.70;;;17.90;99.90;;;;;;5015467;28;20108;-57
2023/07/27 10:25:15;;;;;;;3.50;3.15;;;17.80;99.90;;;;;;5024871;28;20033;-59
2023/07/27 10:27:54;;;;;;;5.45;3.53;;;17.80;99.90;;;;;;5017136;28;20042;-57
2023/07/27 10:30:21;;;;;;;4.95;3.53;;;17.70;99.90;;;;;;5017312;28;20405;-60
2023/07/27 10:33:16;;;;;;;3.03;2.65;;;17.60;99.90;;;;;;5017600;28;20132;-57
2023/07/27 10:36:03;;;;;;;9.10;2.80;;;17.70;99.90;;;;;;5014720;28;20025;-59
2023/07/27 10:38:31;;;;;;;7.22;4.95;;;17.60;99.90;;;;;;5014091;28;20363;-59
2023/07/27 10:41:14;;;;;;;3.75;3.40;;;17.50;99.90;;;;;;5016457;28;20049;-59
2023/07/27 10:44:08;;;;;;;3.40;2.70;;;17.30;99.90;;;;;;5017747;28;20040;-58
2023/07/27 10:46:38;;;;;;;3.30;3.00;;;17.10;99.90;;;;;;5015536;28;20041;-59
2023/07/27 10:49:12;;;;;;;4.65;3.28;;;17.00;99.90;;;;;;5016439;28;20018;-59
2023/07/27 10:51:38;;;;;;;3.78;3.17;;;16.90;99.90;;;;;;5015745;28;20033;-58
2023/07/27 10:54:03;;;;;;;5.13;2.95;;;16.90;99.90;;;;;;5014715;28;20072;-59
2023/07/27 10:56:32;;;;;;;4.18;2.85;;;16.90;99.90;;;;;;5015152;28;20025;-59
2023/07/27 10:59:01;;;;;;;4.10;3.00;;;16.90;99.90;;;;;;4999880;28;20034;-59
2023/07/27 11:01:32;;;;;;;2.90;2.58;;;16.80;99.90;;;;;;4999351;28;20045;-59
2023/07/27 11:03:58;;;;;;;;;;;16.80;99.90;;;;;;5011609;28;20595;-60
2023/07/27 11:06:27;;;;;;;4.07;3.03;;;16.70;99.90;;;;;;5017741;28;19937;-60
2023/07/27 11:08:53;;;;;;;3.67;2.80;;;16.70;99.90;;;;;;5017681;28;20029;-60
2023/07/27 11:11:20;;;;;;;5.38;2.58;;;16.70;99.90;;;;;;5018759;28;20470;-59
2023/07/27 11:13:47;;;;;;;5.32;3.25;;;16.70;99.90;;;;;;5018854;28;20037;-58
2023/07/27 11:16:13;;;;;;;3.55;3.22;;;16.60;99.90;;;;;;5018150;28;20045;-58
2023/07/27 11:18:41;;;;;;;5.47;3.33;;;16.60;99.90;;;;;;5017993;28;20042;-58
2023/07/27 11:21:10;;;;;;;3.72;3.25;;;16.70;99.90;;;;;;5020371;28;20041;-58
2023/07/27 11:23:47;;;;;;;3.47;3.17;;;16.80;99.90;;;;;;5018484;28;20041;-59
2023/07/27 11:26:14;;;;;;;4.53;2.80;;;16.90;99.90;;;;;;5018024;28;20029;-58
2023/07/27 11:28:40;;;;;;;2.60;1.95;;;16.90;99.90;;;;;;5020309;28;20580;-58
2023/07/27 11:31:07;;;;;;;5.15;2.28;;;16.80;99.90;;;;;;5017072;28;20108;-60
2023/07/27 11:33:34;;;;;;;3.95;2.67;;;16.80;99.90;;;;;;5017988;28;20108;-56
2023/07/27 11:36:02;;;;;;;6.15;2.63;;;16.80;99.90;;;;;;5019099;28;20044;-59
2023/07/27 11:38:28;;;;;;;3.75;2.33;;;16.80;99.90;;;;;;5020178;28;20029;-58
2023/07/27 11:40:57;;;;;;;4.53;2.75;;;16.70;99.90;;;;;;5021310;28;20055;-59
2023/07/27 11:43:26;;;;;;;4.78;2.90;;;16.60;99.90;;;;;;5017770;28;20036;-59
2023/07/27 11:46:00;;;;;;;3.90;2.60;;;16.40;99.90;;;;;;5017380;28;20038;-57
2023/07/27 11:48:29;;;;;;;4.97;3.75;;;16.20;99.90;;;;;;5018061;28;20466;-58
2023/07/27 11:50:56;;;;;;;4.93;3.38;;;16.10;99.90;;;;;;5017113;28;20036;-59
2023/07/27 11:53:27;;;;;;;7.00;3.67;;;15.90;99.90;;;;;;5019304;28;20505;-57
2023/07/27 11:55:53;;;;;;;8.25;4.05;;;15.80;99.90;;;;;;5018377;28;20022;-60
2023/07/27 11:58:19;;;;;;;4.53;3.60;;;15.70;99.90;;;;;;5018440;28;20034;-61
2023/07/27 12:00:51;;;;;;;6.47;3.58;;;15.70;99.90;;;;;;5019731;28;20547;-61
2023/07/27 12:03:19;;;;;;;4.82;3.80;;;15.60;99.90;;;;;;5016893;28;20045;-58
2023/07/27 12:05:45;;;;;;;3.78;3.47;;;15.50;99.90;;;;;;5017931;28;20128;-57
2023/07/27 12:08:16;;;;;;;4.10;3.13;;;15.50;99.90;;;;;;5019511;28;20421;-58
2023/07/27 12:10:53;;;;;;;4.82;3.38;;;15.60;99.90;;;;;;5019162;28;20041;-57
2023/07/27 12:13:22;;;;;;;3.38;3.08;;;15.70;99.90;;;;;;5021852;28;20068;-58
2023/07/27 12:15:58;;;;;;;3.45;3.15;;;15.70;99.90;;;;;;5018700;28;20559;-58
2023/07/27 12:18:26;;;;;;;3.65;2.97;;;15.80;99.90;;;;;;5019716;28;20045;-57
2023/07/27 12:20:53;;;;;;;3.28;2.92;;;15.80;99.90;;;;;;5019673;28;20493;-56
2023/07/27 12:23:19;;;;;;;5.75;3.50;;;15.90;99.90;;;;;;5022465;28;20064;-58
2023/07/27 12:25:46;;;;;;;5.97;3.97;;;15.90;99.90;;;;;;5020355;28;20552;-58
2023/07/27 12:28:11;;;;;;;6.60;4.13;;;15.90;99.90;;;;;;5018990;28;20026;-58
2023/07/27 12:30:37;;;;;;;5.40;4.50;;;15.90;99.90;;;;;;5019740;28;20034;-59
2023/07/27 12:33:03;;;;;;;5.57;5.07;;;15.80;99.90;;;;;;5016993;28;20029;-58
2023/07/27 12:35:29;;;;;;;6.55;5.93;;;15.70;99.90;;;;;;5019607;28;20080;-58
2023/07/27 12:37:55;;;;;;;6.45;5.85;;;15.60;99.90;;;;;;5017725;28;20026;-62